sensor_id;sensor_type;location;lat;lon;timestamp;noise_LAeq;noise_LA_min;noise_LA_max;noise_LA01;noise_LA95
49215;Laerm;45943;53.148;8.204;2023-06-26T00:00:15;41.14;36.54;44.71;;
49215;Laerm;45943;53.148;8.204;2023-06-26T00:02:41;49.51;35.29;71.36;;
49215;Laerm;45943;53.148;8.204;2023-06-26T00:05:08;60.89;36.54;78.47;;
49215;Laerm;45943;53.148;8.204;2023-06-26T00:07:34;44.36;38.97;57.10;;
49215;Laerm;45943;53.148;8.204;2023-06-26T00:10:04;42.33;35.96;66.02;;
49215;Laerm;45943;53.148;8.204;2023-06-26T00:12:31;41.94;36.26;47.36;;
49215;Laerm;45943;53.148;8.204;2023-06-26T00:14:57;40.43;36.26;45.32;;
49215;Laerm;45943;53.148;8.204;2023-06-26T00:17:23;40.99;36.80;45.61;;
49215;Laerm;45943;53.148;8.204;2023-06-26T00:19:50;41.18;36.80;47.49;;
49215;Laerm;45943;53.148;8.204;2023-06-26T00:22:16;41.82;37.72;47.40;;
49215;Laerm;45943;53.148;8.204;2023-06-26T00:24:42;41.12;37.29;44.32;;
49215;Laerm;45943;53.148;8.204;2023-06-26T00:27:08;41.65;35.29;47.90;;
49215;Laerm;45943;53.148;8.204;2023-06-26T00:29:34;45.48;36.54;62.15;;
49215;Laerm;45943;53.148;8.204;2023-06-26T00:32:01;42.60;36.80;46.02;;
49215;Laerm;45943;53.148;8.204;2023-06-26T00:34:27;43.42;37.05;47.80;;
49215;Laerm;45943;53.148;8.204;2023-06-26T00:36:53;42.45;36.54;46.23;;
49215;Laerm;45943;53.148;8.204;2023-06-26T00:39:19;41.42;37.05;46.35;;
49215;Laerm;45943;53.148;8.204;2023-06-26T00:41:45;41.39;35.64;48.00;;
49215;Laerm;45943;53.148;8.204;2023-06-26T00:44:11;41.58;37.05;47.33;;
49215;Laerm;45943;53.148;8.204;2023-06-26T00:46:37;41.35;35.64;46.37;;
49215;Laerm;45943;53.148;8.204;2023-06-26T00:49:04;40.81;36.26;45.54;;
49215;Laerm;45943;53.148;8.204;2023-06-26T00:51:30;41.12;36.54;44.71;;
49215;Laerm;45943;53.148;8.204;2023-06-26T00:53:57;41.07;35.64;46.80;;
49215;Laerm;45943;53.148;8.204;2023-06-26T00:56:23;40.53;36.26;43.84;;
49215;Laerm;45943;53.148;8.204;2023-06-26T00:58:49;42.88;37.29;53.83;;
49215;Laerm;45943;53.148;8.204;2023-06-26T01:01:15;41.90;37.51;47.72;;
49215;Laerm;45943;53.148;8.204;2023-06-26T01:03:44;40.96;36.54;45.29;;
49215;Laerm;45943;53.148;8.204;2023-06-26T01:06:13;41.17;36.54;45.29;;
49215;Laerm;45943;53.148;8.204;2023-06-26T01:08:41;42.01;36.26;47.42;;
49215;Laerm;45943;53.148;8.204;2023-06-26T01:11:07;41.68;37.92;45.19;;
49215;Laerm;45943;53.148;8.204;2023-06-26T01:13:34;42.04;36.26;47.33;;
49215;Laerm;45943;53.148;8.204;2023-06-26T01:16:01;41.71;37.29;46.20;;
49215;Laerm;45943;53.148;8.204;2023-06-26T01:18:29;41.46;36.80;46.37;;
49215;Laerm;45943;53.148;8.204;2023-06-26T01:20:56;41.62;35.64;46.37;;
49215;Laerm;45943;53.148;8.204;2023-06-26T01:23:34;42.69;38.30;48.72;;
49215;Laerm;45943;53.148;8.204;2023-06-26T01:28:34;43.09;37.92;48.02;;
49215;Laerm;45943;53.148;8.204;2023-06-26T01:31:02;42.10;37.37;50.17;;
49215;Laerm;45943;53.148;8.204;2023-06-26T01:33:30;41.73;36.26;45.96;;
49215;Laerm;45943;53.148;8.204;2023-06-26T01:35:56;42.22;35.29;48.00;;
49215;Laerm;45943;53.148;8.204;2023-06-26T01:38:22;46.59;38.30;63.29;;
49215;Laerm;45943;53.148;8.204;2023-06-26T01:40:50;41.88;37.58;50.05;;
49215;Laerm;45943;53.148;8.204;2023-06-26T01:46:06;41.52;37.72;53.06;;
49215;Laerm;45943;53.148;8.204;2023-06-26T01:48:43;44.74;37.92;60.90;;
49215;Laerm;45943;53.148;8.204;2023-06-26T01:51:10;47.14;37.29;61.24;;
49215;Laerm;45943;53.148;8.204;2023-06-26T01:53:41;47.91;38.48;61.58;;
49215;Laerm;45943;53.148;8.204;2023-06-26T01:56:16;49.93;40.18;63.54;;
49215;Laerm;45943;53.148;8.204;2023-06-26T01:58:46;50.83;40.30;63.82;;
49215;Laerm;45943;53.148;8.204;2023-06-26T02:01:13;51.79;40.52;63.36;;
49215;Laerm;45943;53.148;8.204;2023-06-26T02:03:39;50.62;39.55;66.50;;
49215;Laerm;45943;53.148;8.204;2023-06-26T02:06:05;51.77;41.31;64.52;;
49215;Laerm;45943;53.148;8.204;2023-06-26T02:08:31;57.04;40.30;78.88;;
49215;Laerm;45943;53.148;8.204;2023-06-26T02:10:57;47.69;41.49;58.33;;
49215;Laerm;45943;53.148;8.204;2023-06-26T02:13:23;47.85;40.30;59.65;;
49215;Laerm;45943;53.148;8.204;2023-06-26T02:15:49;49.28;41.14;58.99;;
49215;Laerm;45943;53.148;8.204;2023-06-26T02:18:15;49.91;40.63;59.79;;
49215;Laerm;45943;53.148;8.204;2023-06-26T02:20:41;49.92;39.94;60.50;;
49215;Laerm;45943;53.148;8.204;2023-06-26T02:23:07;49.71;41.31;62.23;;
49215;Laerm;45943;53.148;8.204;2023-06-26T02:25:33;50.68;41.56;67.78;;
49215;Laerm;45943;53.148;8.204;2023-06-26T02:27:59;51.40;39.94;65.51;;
49215;Laerm;45943;53.148;8.204;2023-06-26T02:30:25;52.03;41.13;66.57;;
49215;Laerm;45943;53.148;8.204;2023-06-26T02:32:51;52.98;40.49;77.49;;
49215;Laerm;45943;53.148;8.204;2023-06-26T02:35:17;50.30;41.66;62.98;;
49215;Laerm;45943;53.148;8.204;2023-06-26T02:37:43;49.58;41.49;62.00;;
49215;Laerm;45943;53.148;8.204;2023-06-26T02:40:09;60.09;42.21;69.55;;
49215;Laerm;45943;53.148;8.204;2023-06-26T02:42:36;52.28;40.41;75.41;;
49215;Laerm;45943;53.148;8.204;2023-06-26T02:45:02;46.32;40.41;59.26;;
49215;Laerm;45943;53.148;8.204;2023-06-26T02:47:27;47.32;41.03;65.76;;
49215;Laerm;45943;53.148;8.204;2023-06-26T02:49:53;49.75;41.82;65.18;;
49215;Laerm;45943;53.148;8.204;2023-06-26T02:52:19;48.20;40.30;61.02;;
49215;Laerm;45943;53.148;8.204;2023-06-26T02:54:45;47.56;40.41;66.02;;
49215;Laerm;45943;53.148;8.204;2023-06-26T02:57:11;49.55;40.52;65.44;;
49215;Laerm;45943;53.148;8.204;2023-06-26T02:59:38;48.51;40.83;64.80;;
49215;Laerm;45943;53.148;8.204;2023-06-26T03:02:05;47.59;41.98;63.69;;
49215;Laerm;45943;53.148;8.204;2023-06-26T03:04:31;45.07;40.06;67.57;;
49215;Laerm;45943;53.148;8.204;2023-06-26T03:06:57;46.00;41.49;58.86;;
49215;Laerm;45943;53.148;8.204;2023-06-26T03:09:23;50.71;41.40;69.46;;
49215;Laerm;45943;53.148;8.204;2023-06-26T03:11:49;45.80;41.40;64.57;;
49215;Laerm;45943;53.148;8.204;2023-06-26T03:14:15;49.95;41.66;63.83;;
49215;Laerm;45943;53.148;8.204;2023-06-26T03:16:41;45.15;41.66;55.97;;
49215;Laerm;45943;53.148;8.204;2023-06-26T03:19:07;44.90;41.31;56.68;;
49215;Laerm;45943;53.148;8.204;2023-06-26T03:21:33;57.32;42.63;75.53;;
49215;Laerm;45943;53.148;8.204;2023-06-26T03:23:59;47.44;41.40;62.11;;
49215;Laerm;45943;53.148;8.204;2023-06-26T03:26:25;44.24;41.90;50.32;;
49215;Laerm;45943;53.148;8.204;2023-06-26T03:28:53;46.68;41.82;61.58;;
49215;Laerm;45943;53.148;8.204;2023-06-26T03:31:20;45.58;42.06;56.64;;
49215;Laerm;45943;53.148;8.204;2023-06-26T03:33:46;45.59;41.31;58.16;;
49215;Laerm;45943;53.148;8.204;2023-06-26T03:36:12;45.69;42.82;58.44;;
49215;Laerm;45943;53.148;8.204;2023-06-26T03:38:38;44.91;42.35;54.98;;
49215;Laerm;45943;53.148;8.204;2023-06-26T03:41:04;55.93;42.56;73.74;;
49215;Laerm;45943;53.148;8.204;2023-06-26T03:43:30;50.26;42.76;65.14;;
49215;Laerm;45943;53.148;8.204;2023-06-26T03:45:56;45.31;42.08;52.98;;
49215;Laerm;45943;53.148;8.204;2023-06-26T03:48:22;56.78;42.56;73.97;;
49215;Laerm;45943;53.148;8.204;2023-06-26T03:50:49;47.62;42.21;62.62;;
49215;Laerm;45943;53.148;8.204;2023-06-26T03:53:15;48.83;42.49;61.15;;
49215;Laerm;45943;53.148;8.204;2023-06-26T03:55:41;48.93;42.28;71.38;;
49215;Laerm;45943;53.148;8.204;2023-06-26T03:58:07;45.93;42.49;59.07;;
49215;Laerm;45943;53.148;8.204;2023-06-26T04:00:33;49.40;42.90;72.55;;
49215;Laerm;45943;53.148;8.204;2023-06-26T04:02:59;49.51;42.82;69.18;;
49215;Laerm;45943;53.148;8.204;2023-06-26T04:05:25;49.99;43.01;67.13;;
49215;Laerm;45943;53.148;8.204;2023-06-26T04:07:51;49.22;42.95;63.85;;
49215;Laerm;45943;53.148;8.204;2023-06-26T04:10:18;57.97;42.69;84.99;;
49215;Laerm;45943;53.148;8.204;2023-06-26T04:12:44;48.54;42.84;64.22;;
49215;Laerm;45943;53.148;8.204;2023-06-26T04:15:10;62.30;42.76;73.82;;
49215;Laerm;45943;53.148;8.204;2023-06-26T04:17:36;52.60;43.36;68.04;;
49215;Laerm;45943;53.148;8.204;2023-06-26T04:20:02;47.75;43.31;68.27;;
49215;Laerm;45943;53.148;8.204;2023-06-26T04:22:32;58.06;44.04;76.00;;
49215;Laerm;45943;53.148;8.204;2023-06-26T04:25:01;53.77;44.50;66.99;;
49215;Laerm;45943;53.148;8.204;2023-06-26T04:27:28;49.88;43.31;63.01;;
49215;Laerm;45943;53.148;8.204;2023-06-26T04:29:54;50.35;43.31;65.96;;
49215;Laerm;45943;53.148;8.204;2023-06-26T04:32:20;49.32;44.24;67.33;;
49215;Laerm;45943;53.148;8.204;2023-06-26T04:34:46;49.96;44.28;63.01;;
49215;Laerm;45943;53.148;8.204;2023-06-26T04:37:13;49.35;43.79;66.02;;
49215;Laerm;45943;53.148;8.204;2023-06-26T04:39:42;54.79;43.74;71.13;;
49215;Laerm;45943;53.148;8.204;2023-06-26T04:42:08;48.99;43.69;64.34;;
49215;Laerm;45943;53.148;8.204;2023-06-26T04:44:36;48.76;43.64;60.61;;
49215;Laerm;45943;53.148;8.204;2023-06-26T04:47:03;49.06;43.94;62.33;;
49215;Laerm;45943;53.148;8.204;2023-06-26T04:49:29;47.23;44.37;52.82;;
49215;Laerm;45943;53.148;8.204;2023-06-26T04:51:56;53.37;43.69;73.99;;
49215;Laerm;45943;53.148;8.204;2023-06-26T04:54:22;48.75;43.42;61.10;;
49215;Laerm;45943;53.148;8.204;2023-06-26T04:56:48;46.78;43.58;52.95;;
49215;Laerm;45943;53.148;8.204;2023-06-26T04:59:14;47.69;43.53;67.95;;
49215;Laerm;45943;53.148;8.204;2023-06-26T05:01:41;52.78;43.79;65.76;;
49215;Laerm;45943;53.148;8.204;2023-06-26T05:04:07;48.78;43.42;66.33;;
49215;Laerm;45943;53.148;8.204;2023-06-26T05:06:33;52.37;43.25;66.19;;
49215;Laerm;45943;53.148;8.204;2023-06-26T05:08:59;55.28;43.69;68.74;;
49215;Laerm;45943;53.148;8.204;2023-06-26T05:11:25;47.09;43.64;64.72;;
49215;Laerm;45943;53.148;8.204;2023-06-26T05:13:51;52.16;43.53;67.17;;
49215;Laerm;45943;53.148;8.204;2023-06-26T05:16:17;53.43;44.23;69.34;;
49215;Laerm;45943;53.148;8.204;2023-06-26T05:18:43;53.49;43.19;67.26;;
49215;Laerm;45943;53.148;8.204;2023-06-26T05:21:09;51.21;43.53;64.55;;
49215;Laerm;45943;53.148;8.204;2023-06-26T05:23:35;52.28;43.74;66.98;;
49215;Laerm;45943;53.148;8.204;2023-06-26T05:26:02;55.44;43.74;63.43;;
49215;Laerm;45943;53.148;8.204;2023-06-26T05:28:29;53.43;43.94;66.63;;
49215;Laerm;45943;53.148;8.204;2023-06-26T05:30:59;50.72;44.28;62.82;;
49215;Laerm;45943;53.148;8.204;2023-06-26T05:33:26;49.72;42.95;60.44;;
49215;Laerm;45943;53.148;8.204;2023-06-26T05:35:53;52.07;42.35;68.76;;
49215;Laerm;45943;53.148;8.204;2023-06-26T05:38:19;53.67;43.58;67.20;;
49215;Laerm;45943;53.148;8.204;2023-06-26T05:40:46;58.46;42.49;75.12;;
49215;Laerm;45943;53.148;8.204;2023-06-26T05:43:12;51.54;42.82;65.94;;
49215;Laerm;45943;53.148;8.204;2023-06-26T05:45:39;62.29;42.95;79.11;;
49215;Laerm;45943;53.148;8.204;2023-06-26T05:48:05;53.52;42.56;64.66;;
49215;Laerm;45943;53.148;8.204;2023-06-26T05:50:32;59.99;42.69;89.67;;
49215;Laerm;45943;53.148;8.204;2023-06-26T05:52:58;57.20;42.56;81.99;;
49215;Laerm;45943;53.148;8.204;2023-06-26T05:55:25;55.55;43.13;73.02;;
49215;Laerm;45943;53.148;8.204;2023-06-26T05:57:51;57.11;42.49;80.34;;
49215;Laerm;45943;53.148;8.204;2023-06-26T06:00:18;54.88;42.42;83.86;;
49215;Laerm;45943;53.148;8.204;2023-06-26T06:02:45;54.71;42.21;78.79;;
49215;Laerm;45943;53.148;8.204;2023-06-26T06:05:11;54.04;43.19;67.62;;
49215;Laerm;45943;53.148;8.204;2023-06-26T06:07:37;54.51;42.95;70.89;;
49215;Laerm;45943;53.148;8.204;2023-06-26T06:10:03;51.81;43.13;63.58;;
49215;Laerm;45943;53.148;8.204;2023-06-26T06:12:30;55.25;42.95;79.24;;
49215;Laerm;45943;53.148;8.204;2023-06-26T06:14:56;55.54;42.21;74.61;;
49215;Laerm;45943;53.148;8.204;2023-06-26T06:17:22;51.51;43.02;70.03;;
49215;Laerm;45943;53.148;8.204;2023-06-26T06:19:48;54.07;43.53;65.63;;
49215;Laerm;45943;53.148;8.204;2023-06-26T06:22:15;56.86;45.14;68.35;;
49215;Laerm;45943;53.148;8.204;2023-06-26T06:24:42;56.45;42.76;71.13;;
49215;Laerm;45943;53.148;8.204;2023-06-26T06:27:08;51.55;43.01;62.34;;
49215;Laerm;45943;53.148;8.204;2023-06-26T06:29:34;56.92;45.93;68.71;;
49215;Laerm;45943;53.148;8.204;2023-06-26T06:32:00;55.43;43.93;68.11;;
49215;Laerm;45943;53.148;8.204;2023-06-26T06:34:26;54.95;41.82;65.74;;
49215;Laerm;45943;53.148;8.204;2023-06-26T06:36:52;54.63;43.31;67.25;;
49215;Laerm;45943;53.148;8.204;2023-06-26T06:39:18;53.18;43.42;69.04;;
49215;Laerm;45943;53.148;8.204;2023-06-26T06:41:44;61.33;43.53;77.66;;
49215;Laerm;45943;53.148;8.204;2023-06-26T06:44:10;52.83;42.69;66.53;;
49215;Laerm;45943;53.148;8.204;2023-06-26T06:46:36;57.86;43.25;79.20;;
49215;Laerm;45943;53.148;8.204;2023-06-26T06:49:02;57.10;42.56;73.16;;
49215;Laerm;45943;53.148;8.204;2023-06-26T06:51:29;57.50;44.28;70.07;;
49215;Laerm;45943;53.148;8.204;2023-06-26T06:53:55;56.81;44.41;65.22;;
49215;Laerm;45943;53.148;8.204;2023-06-26T06:56:21;56.37;44.41;64.75;;
49215;Laerm;45943;53.148;8.204;2023-06-26T06:58:47;57.54;44.28;68.94;;
49215;Laerm;45943;53.148;8.204;2023-06-26T07:01:13;54.04;46.29;62.77;;
49215;Laerm;45943;53.148;8.204;2023-06-26T07:03:39;56.77;47.17;68.24;;
49215;Laerm;45943;53.148;8.204;2023-06-26T07:06:05;56.51;43.94;71.85;;
49215;Laerm;45943;53.148;8.204;2023-06-26T07:08:31;56.11;43.53;70.07;;
49215;Laerm;45943;53.148;8.204;2023-06-26T07:10:57;51.04;44.28;65.49;;
49215;Laerm;45943;53.148;8.204;2023-06-26T07:13:23;60.15;44.23;74.38;;
49215;Laerm;45943;53.148;8.204;2023-06-26T07:15:49;58.31;45.11;70.25;;
49215;Laerm;45943;53.148;8.204;2023-06-26T07:18:16;53.39;44.71;66.95;;
49215;Laerm;45943;53.148;8.204;2023-06-26T07:20:42;52.12;44.28;63.59;;
49215;Laerm;45943;53.148;8.204;2023-06-26T07:23:08;53.69;43.79;64.84;;
49215;Laerm;45943;53.148;8.204;2023-06-26T07:25:35;58.50;44.37;73.07;;
49215;Laerm;45943;53.148;8.204;2023-06-26T07:28:00;57.06;44.95;74.50;;
49215;Laerm;45943;53.148;8.204;2023-06-26T07:30:26;57.33;45.29;68.98;;
49215;Laerm;45943;53.148;8.204;2023-06-26T07:32:53;54.51;45.67;67.14;;
49215;Laerm;45943;53.148;8.204;2023-06-26T07:35:19;49.68;44.41;59.04;;
49215;Laerm;45943;53.148;8.204;2023-06-26T07:37:45;55.77;46.85;69.51;;
49215;Laerm;45943;53.148;8.204;2023-06-26T07:40:11;56.36;44.59;71.60;;
49215;Laerm;45943;53.148;8.204;2023-06-26T07:42:37;55.18;44.99;69.36;;
49215;Laerm;45943;53.148;8.204;2023-06-26T07:45:03;58.58;45.96;73.95;;
49215;Laerm;45943;53.148;8.204;2023-06-26T07:47:38;63.98;46.05;88.97;;
49215;Laerm;45943;53.148;8.204;2023-06-26T07:50:05;70.99;57.35;78.58;;
49215;Laerm;45943;53.148;8.204;2023-06-26T07:52:31;63.68;56.84;76.23;;
49215;Laerm;45943;53.148;8.204;2023-06-26T07:54:57;61.58;49.03;82.40;;
49215;Laerm;45943;53.148;8.204;2023-06-26T07:57:23;56.14;48.00;69.44;;
49215;Laerm;45943;53.148;8.204;2023-06-26T07:59:49;56.42;47.62;71.36;;
49215;Laerm;45943;53.148;8.204;2023-06-26T08:02:16;53.50;47.03;68.46;;
49215;Laerm;45943;53.148;8.204;2023-06-26T08:04:43;55.37;45.67;72.47;;
49215;Laerm;45943;53.148;8.204;2023-06-26T08:07:09;56.78;44.79;69.65;;
49215;Laerm;45943;53.148;8.204;2023-06-26T08:09:36;54.63;44.04;72.45;;
49215;Laerm;45943;53.148;8.204;2023-06-26T08:12:02;56.37;43.84;67.92;;
49215;Laerm;45943;53.148;8.204;2023-06-26T08:14:28;55.87;44.14;69.86;;
49215;Laerm;45943;53.148;8.204;2023-06-26T08:16:54;54.11;44.63;66.13;;
49215;Laerm;45943;53.148;8.204;2023-06-26T08:19:20;57.63;44.54;71.78;;
49215;Laerm;45943;53.148;8.204;2023-06-26T08:21:47;51.78;43.94;64.77;;
49215;Laerm;45943;53.148;8.204;2023-06-26T08:24:13;59.76;44.32;76.60;;
49215;Laerm;45943;53.148;8.204;2023-06-26T08:26:42;54.36;45.25;67.67;;
49215;Laerm;45943;53.148;8.204;2023-06-26T08:29:08;54.56;45.11;66.01;;
49215;Laerm;45943;53.148;8.204;2023-06-26T08:31:35;52.72;44.37;66.73;;
49215;Laerm;45943;53.148;8.204;2023-06-26T08:34:02;54.13;43.89;72.77;;
49215;Laerm;45943;53.148;8.204;2023-06-26T08:36:29;53.84;43.89;66.06;;
49215;Laerm;45943;53.148;8.204;2023-06-26T08:38:55;55.10;44.09;69.45;;
49215;Laerm;45943;53.148;8.204;2023-06-26T08:41:21;58.63;43.89;72.93;;
49215;Laerm;45943;53.148;8.204;2023-06-26T08:43:47;57.10;43.74;67.72;;
49215;Laerm;45943;53.148;8.204;2023-06-26T08:46:14;61.14;44.63;69.97;;
49215;Laerm;45943;53.148;8.204;2023-06-26T08:48:45;48.78;43.64;60.40;;
49215;Laerm;45943;53.148;8.204;2023-06-26T08:51:16;53.22;44.14;66.89;;
49215;Laerm;45943;53.148;8.204;2023-06-26T08:53:50;54.72;43.64;65.39;;
49215;Laerm;45943;53.148;8.204;2023-06-26T08:56:19;51.90;43.74;62.64;;
49215;Laerm;45943;53.148;8.204;2023-06-26T08:58:47;52.08;43.64;68.03;;
49215;Laerm;45943;53.148;8.204;2023-06-26T09:01:13;49.58;43.42;63.08;;
49215;Laerm;45943;53.148;8.204;2023-06-26T09:03:39;54.12;43.07;70.25;;
49215;Laerm;45943;53.148;8.204;2023-06-26T09:06:12;54.66;43.31;70.62;;
49215;Laerm;45943;53.148;8.204;2023-06-26T09:08:41;56.44;43.19;68.78;;
49215;Laerm;45943;53.148;8.204;2023-06-26T09:11:07;54.29;44.37;65.36;;
49215;Laerm;45943;53.148;8.204;2023-06-26T09:13:33;55.67;43.64;67.91;;
49215;Laerm;45943;53.148;8.204;2023-06-26T09:16:04;51.01;42.95;69.09;;
49215;Laerm;45943;53.148;8.204;2023-06-26T09:18:32;54.99;44.09;78.32;;
49215;Laerm;45943;53.148;8.204;2023-06-26T09:20:58;56.16;44.95;69.56;;
49215;Laerm;45943;53.148;8.204;2023-06-26T09:23:24;58.08;45.40;72.03;;
49215;Laerm;45943;53.148;8.204;2023-06-26T09:25:51;57.04;44.14;70.03;;
49215;Laerm;45943;53.148;8.204;2023-06-26T09:28:17;63.53;46.93;74.53;;
49215;Laerm;45943;53.148;8.204;2023-06-26T09:30:44;56.03;46.17;72.39;;
49215;Laerm;45943;53.148;8.204;2023-06-26T09:33:16;51.08;44.79;61.52;;
49215;Laerm;45943;53.148;8.204;2023-06-26T09:35:43;52.52;44.54;65.20;;
49215;Laerm;45943;53.148;8.204;2023-06-26T09:38:10;52.68;43.99;65.32;;
49215;Laerm;45943;53.148;8.204;2023-06-26T09:40:37;60.54;44.75;77.55;;
49215;Laerm;45943;53.148;8.204;2023-06-26T09:43:05;51.78;44.37;63.21;;
49215;Laerm;45943;53.148;8.204;2023-06-26T09:45:34;53.58;43.99;75.20;;
49215;Laerm;45943;53.148;8.204;2023-06-26T09:48:04;52.02;44.67;62.78;;
49215;Laerm;45943;53.148;8.204;2023-06-26T09:50:34;54.62;46.73;66.54;;
49215;Laerm;45943;53.148;8.204;2023-06-26T09:53:10;62.36;48.36;86.73;;
49215;Laerm;45943;53.148;8.204;2023-06-26T09:55:37;63.83;47.80;87.64;;
49215;Laerm;45943;53.148;8.204;2023-06-26T09:58:03;55.62;46.51;71.20;;
49215;Laerm;45943;53.148;8.204;2023-06-26T10:00:32;52.35;44.95;67.87;;
49215;Laerm;45943;53.148;8.204;2023-06-26T10:02:59;51.57;45.07;64.07;;
49215;Laerm;45943;53.148;8.204;2023-06-26T10:05:25;52.79;45.25;64.76;;
49215;Laerm;45943;53.148;8.204;2023-06-26T10:07:53;55.58;45.25;75.65;;
49215;Laerm;45943;53.148;8.204;2023-06-26T10:10:21;52.91;44.46;64.81;;
49215;Laerm;45943;53.148;8.204;2023-06-26T10:12:49;50.58;44.18;69.82;;
49215;Laerm;45943;53.148;8.204;2023-06-26T10:15:16;51.94;43.79;68.80;;
49215;Laerm;45943;53.148;8.204;2023-06-26T10:17:45;54.50;45.11;67.17;;
49215;Laerm;45943;53.148;8.204;2023-06-26T10:20:14;52.36;44.54;67.79;;
49215;Laerm;45943;53.148;8.204;2023-06-26T10:22:45;57.33;45.54;71.65;;
49215;Laerm;45943;53.148;8.204;2023-06-26T10:25:16;54.14;45.29;65.51;;
49215;Laerm;45943;53.148;8.204;2023-06-26T10:27:47;55.51;44.63;74.59;;
49215;Laerm;45943;53.148;8.204;2023-06-26T10:30:18;57.40;45.29;68.49;;
49215;Laerm;45943;53.148;8.204;2023-06-26T10:32:46;60.67;49.51;74.76;;
49215;Laerm;45943;53.148;8.204;2023-06-26T10:35:13;58.25;47.47;68.46;;
49215;Laerm;45943;53.148;8.204;2023-06-26T10:37:46;54.02;44.63;69.71;;
49215;Laerm;45943;53.148;8.204;2023-06-26T10:40:22;56.24;44.75;68.96;;
49215;Laerm;45943;53.148;8.204;2023-06-26T10:42:51;55.89;45.64;69.79;;
49215;Laerm;45943;53.148;8.204;2023-06-26T10:45:20;54.72;43.99;66.49;;
49215;Laerm;45943;53.148;8.204;2023-06-26T10:47:47;52.69;45.50;65.69;;
49215;Laerm;45943;53.148;8.204;2023-06-26T10:50:28;52.02;44.75;64.81;;
49215;Laerm;45943;53.148;8.204;2023-06-26T10:53:15;53.86;45.57;64.76;;
49215;Laerm;45943;53.148;8.204;2023-06-26T10:55:57;53.82;44.18;64.42;;
49215;Laerm;45943;53.148;8.204;2023-06-26T10:58:40;51.64;43.25;63.27;;
49215;Laerm;45943;53.148;8.204;2023-06-26T11:03:44;52.27;43.94;64.62;;
49215;Laerm;45943;53.148;8.204;2023-06-26T11:06:20;55.92;45.11;72.35;;
49215;Laerm;45943;53.148;8.204;2023-06-26T11:09:00;54.89;44.09;72.31;;
49215;Laerm;45943;53.148;8.204;2023-06-26T11:14:21;51.78;43.74;67.25;;
49215;Laerm;45943;53.148;8.204;2023-06-26T11:16:47;59.51;42.56;79.12;;
49215;Laerm;45943;53.148;8.204;2023-06-26T11:19:15;57.33;43.89;79.97;;
49215;Laerm;45943;53.148;8.204;2023-06-26T11:21:42;53.56;42.69;72.58;;
49215;Laerm;45943;53.148;8.204;2023-06-26T11:24:08;51.41;43.79;66.31;;
49215;Laerm;45943;53.148;8.204;2023-06-26T11:26:42;51.90;43.64;65.82;;
49215;Laerm;45943;53.148;8.204;2023-06-26T11:29:08;55.34;43.84;74.13;;
49215;Laerm;45943;53.148;8.204;2023-06-26T11:31:37;51.42;43.58;68.83;;
49215;Laerm;45943;53.148;8.204;2023-06-26T11:34:06;52.44;44.71;63.82;;
49215;Laerm;45943;53.148;8.204;2023-06-26T11:36:33;53.08;44.32;64.89;;
49215;Laerm;45943;53.148;8.204;2023-06-26T11:39:04;57.64;45.25;73.24;;
49215;Laerm;45943;53.148;8.204;2023-06-26T11:41:35;54.63;43.99;68.61;;
49215;Laerm;45943;53.148;8.204;2023-06-26T11:44:03;50.43;43.25;65.52;;
49215;Laerm;45943;53.148;8.204;2023-06-26T11:46:30;54.33;43.48;65.74;;
49215;Laerm;45943;53.148;8.204;2023-06-26T11:48:57;52.68;43.07;66.87;;
49215;Laerm;45943;53.148;8.204;2023-06-26T11:51:23;52.46;42.42;65.25;;
49215;Laerm;45943;53.148;8.204;2023-06-26T11:53:49;53.19;43.34;69.44;;
49215;Laerm;45943;53.148;8.204;2023-06-26T11:56:16;51.73;43.79;64.91;;
49215;Laerm;45943;53.148;8.204;2023-06-26T12:01:33;53.87;43.89;69.28;;
49215;Laerm;45943;53.148;8.204;2023-06-26T12:04:01;49.99;43.60;62.82;;
49215;Laerm;45943;53.148;8.204;2023-06-26T12:06:29;54.12;43.64;69.82;;
49215;Laerm;45943;53.148;8.204;2023-06-26T12:08:58;57.68;44.14;75.09;;
49215;Laerm;45943;53.148;8.204;2023-06-26T12:11:26;53.34;43.84;66.78;;
49215;Laerm;45943;53.148;8.204;2023-06-26T12:13:54;51.21;43.99;63.36;;
49215;Laerm;45943;53.148;8.204;2023-06-26T12:16:20;50.82;44.14;63.21;;
49215;Laerm;45943;53.148;8.204;2023-06-26T12:18:46;52.74;44.32;64.93;;
49215;Laerm;45943;53.148;8.204;2023-06-26T12:21:45;54.14;43.94;70.02;;
49215;Laerm;45943;53.148;8.204;2023-06-26T12:24:18;50.48;43.19;69.01;;
49215;Laerm;45943;53.148;8.204;2023-06-26T12:26:47;53.63;43.25;72.45;;
49215;Laerm;45943;53.148;8.204;2023-06-26T12:29:14;51.35;43.19;71.69;;
49215;Laerm;45943;53.148;8.204;2023-06-26T12:31:44;51.90;45.18;70.99;;
49215;Laerm;45943;53.148;8.204;2023-06-26T12:34:12;54.75;44.09;66.82;;
49215;Laerm;45943;53.148;8.204;2023-06-26T12:36:50;52.14;44.41;68.33;;
49215;Laerm;45943;53.148;8.204;2023-06-26T12:39:20;56.08;44.23;70.37;;
49215;Laerm;45943;53.148;8.204;2023-06-26T12:41:48;52.74;42.95;68.54;;
49215;Laerm;45943;53.148;8.204;2023-06-26T12:44:22;51.63;43.58;63.87;;
49215;Laerm;45943;53.148;8.204;2023-06-26T12:46:49;56.84;44.09;76.12;;
49215;Laerm;45943;53.148;8.204;2023-06-26T12:49:16;56.72;43.74;72.31;;
49215;Laerm;45943;53.148;8.204;2023-06-26T12:51:42;53.77;43.19;67.87;;
49215;Laerm;45943;53.148;8.204;2023-06-26T12:54:08;52.99;43.99;64.69;;
49215;Laerm;45943;53.148;8.204;2023-06-26T12:56:35;50.44;44.46;61.94;;
49215;Laerm;45943;53.148;8.204;2023-06-26T12:59:01;52.68;44.14;66.94;;
49215;Laerm;45943;53.148;8.204;2023-06-26T13:01:27;54.57;44.72;73.38;;
49215;Laerm;45943;53.148;8.204;2023-06-26T13:03:54;51.93;43.99;66.44;;
49215;Laerm;45943;53.148;8.204;2023-06-26T13:06:20;53.75;44.37;72.73;;
49215;Laerm;45943;53.148;8.204;2023-06-26T13:08:46;54.34;44.28;68.90;;
49215;Laerm;45943;53.148;8.204;2023-06-26T13:11:12;51.67;44.09;66.61;;
49215;Laerm;45943;53.148;8.204;2023-06-26T13:13:38;51.97;43.79;73.47;;
49215;Laerm;45943;53.148;8.204;2023-06-26T13:16:04;52.60;44.67;66.14;;
49215;Laerm;45943;53.148;8.204;2023-06-26T13:18:31;53.07;43.79;67.68;;
49215;Laerm;45943;53.148;8.204;2023-06-26T13:20:56;51.25;43.36;64.79;;
49215;Laerm;45943;53.148;8.204;2023-06-26T13:23:23;56.60;43.36;74.68;;
49215;Laerm;45943;53.148;8.204;2023-06-26T13:25:49;51.29;43.64;68.22;;
49215;Laerm;45943;53.148;8.204;2023-06-26T13:28:16;59.80;44.23;80.91;;
49215;Laerm;45943;53.148;8.204;2023-06-26T13:30:42;59.46;44.67;71.12;;
49215;Laerm;45943;53.148;8.204;2023-06-26T13:33:08;53.50;44.04;71.69;;
49215;Laerm;45943;53.148;8.204;2023-06-26T13:35:34;53.70;43.69;68.99;;
49215;Laerm;45943;53.148;8.204;2023-06-26T13:38:00;55.12;45.25;70.86;;
49215;Laerm;45943;53.148;8.204;2023-06-26T13:40:26;61.84;45.33;73.83;;
49215;Laerm;45943;53.148;8.204;2023-06-26T13:42:52;58.42;43.94;77.41;;
49215;Laerm;45943;53.148;8.204;2023-06-26T13:45:18;55.34;44.09;67.35;;
49215;Laerm;45943;53.148;8.204;2023-06-26T13:47:43;55.11;43.99;70.15;;
49215;Laerm;45943;53.148;8.204;2023-06-26T13:50:10;51.82;44.75;65.95;;
49215;Laerm;45943;53.148;8.204;2023-06-26T13:52:36;54.89;43.53;72.65;;
49215;Laerm;45943;53.148;8.204;2023-06-26T13:55:02;57.30;43.74;73.95;;
49215;Laerm;45943;53.148;8.204;2023-06-26T13:57:31;55.69;44.91;70.59;;